»·PEaware :: N8472W KSMO-KPOC

N8472W :: KSMO-KPOC

FLIGHT INFORMATION

Flight Status: Arrived
Operator: Privately registered:
United States
More flights under this callsign
Pilot: Leo M. (41422)
Aircraft: CESSNA 172 SKYHAWK
(C172)
More flights by this aircraft type
Origin: KSMO Santa Monica Mun
United States
Destination: KPOC Brackett
United States
More flights between these airports :: More routes between these airports
Route: SMO SMO125 V64 SLI V8 POXKU V363 POM
File this flight plan on PilotEdge
Remarks:
Altitude:
(Current/Filed)
5,000ft
Speed:
(Current/Filed)
120kts
Departed: 26-Sep-23 03:47 PM
Arrived: 26-Sep-23 04:27 PM
Distance/Time
Traveled:
34nm/0:40
Distance/Time
To Go:
Arrived

Flight Plot

Page will automatically refresh every two minutes.

Flight plan parsing failed; only flown route is shown


Map Options




Map Legend


Flown Route
Filed Route
Departure Airport
Arrival Airport
Navaid (VOR, NDB)
Fix

Horizontal Profiles

Position Reports

Time Latitude Longitude Heading Altitude Ground
Speed
26-Sep-23 15:21 34.017682 -118.447769 319 153ft 0kts
26-Sep-23 15:22 34.017682 -118.447769 319 153ft 0kts
26-Sep-23 15:23 34.017682 -118.447769 319 153ft 0kts
26-Sep-23 15:24 34.017682 -118.447769 319 153ft 0kts
26-Sep-23 15:26 34.017682 -118.447769 319 153ft 0kts
26-Sep-23 15:27 34.017682 -118.447769 319 153ft 0kts
26-Sep-23 15:28 34.017682 -118.447769 319 153ft 0kts
26-Sep-23 15:29 34.017682 -118.447769 319 153ft 0kts
26-Sep-23 15:30 34.017682 -118.447769 319 153ft 0kts
26-Sep-23 15:31 34.017682 -118.447769 319 153ft 0kts
26-Sep-23 15:32 34.017682 -118.447769 319 153ft 0kts
26-Sep-23 15:33 34.017682 -118.447769 319 153ft 0kts
26-Sep-23 15:34 34.017682 -118.447769 319 153ft 0kts
26-Sep-23 15:35 34.017682 -118.447769 319 153ft 0kts
26-Sep-23 15:36 34.017682 -118.447769 319 153ft 0kts
26-Sep-23 15:37 34.017682 -118.447769 319 153ft 0kts
26-Sep-23 15:38 34.017682 -118.447769 319 153ft 0kts
26-Sep-23 15:39 34.017682 -118.447769 319 153ft 0kts
26-Sep-23 15:40 34.017682 -118.447769 319 153ft 0kts
26-Sep-23 15:41 34.017682 -118.447769 319 153ft 0kts
26-Sep-23 15:42 34.017682 -118.447769 319 153ft 0kts
26-Sep-23 15:43 34.017682 -118.447769 319 153ft 0kts
26-Sep-23 15:44 34.017722 -118.447794 345 153ft 2kts
26-Sep-23 15:45 34.018845 -118.446835 337 159ft 0kts
26-Sep-23 15:46 34.019030 -118.447225 263 159ft 9kts
26-Sep-23 15:47 34.007837 -118.459990 223 515ft 76kts
26-Sep-23 15:48 33.993971 -118.479848 254 1196ft 80kts
26-Sep-23 15:49 33.991147 -118.506412 258 1889ft 79kts
26-Sep-23 15:50 33.988831 -118.532197 258 2561ft 76kts
26-Sep-23 15:50 33.987200 -118.553545 259 2990ft 88kts
26-Sep-23 15:52 33.983634 -118.594934 260 2981ft 113kts
26-Sep-23 15:53 33.986929 -118.632687 291 3077ft 110kts
26-Sep-23 15:54 34.009051 -118.624977 83 3673ft 102kts
26-Sep-23 15:55 34.010583 -118.593076 88 4320ft 90kts
26-Sep-23 15:55 34.011023 -118.569056 87 4872ft 83kts
26-Sep-23 15:56 34.011041 -118.535779 89 5081ft 122kts
26-Sep-23 15:57 34.011455 -118.492663 86 5077ft 131kts
26-Sep-23 15:59 34.011058 -118.442513 136 5073ft 130kts
26-Sep-23 16:00 33.977567 -118.431817 160 5072ft 127kts
26-Sep-23 16:00 33.951060 -118.415719 153 5065ft 129kts
26-Sep-23 16:01 33.919835 -118.394479 152 5066ft 128kts
26-Sep-23 16:02 33.888748 -118.373124 151 5060ft 129kts
26-Sep-23 16:03 33.859321 -118.349379 117 5157ft 124kts
26-Sep-23 16:04 33.847997 -118.308816 106 5195ft 130kts
26-Sep-23 16:05 33.837333 -118.266839 106 5195ft 132kts
26-Sep-23 16:06 33.826641 -118.224662 106 5195ft 131kts
26-Sep-23 16:07 33.815946 -118.182511 106 5197ft 131kts
26-Sep-23 16:08 33.805211 -118.140317 106 5198ft 131kts
26-Sep-23 16:09 33.794475 -118.098177 105 5195ft 131kts
26-Sep-23 16:10 33.784421 -118.055952 85 5195ft 130kts
26-Sep-23 16:11 33.793978 -118.014214 70 5179ft 129kts
26-Sep-23 16:12 33.804768 -117.972585 70 5180ft 130kts
26-Sep-23 16:13 33.815537 -117.930989 70 5189ft 130kts
26-Sep-23 16:14 33.826286 -117.889399 69 5193ft 129kts
26-Sep-23 16:15 33.837000 -117.847921 70 5198ft 129kts
26-Sep-23 16:16 33.847719 -117.806323 70 5201ft 130kts
26-Sep-23 16:17 33.872102 -117.783406 357 5206ft 123kts
26-Sep-23 16:18 33.906488 -117.785211 347 5146ft 126kts
26-Sep-23 16:19 33.942288 -117.789636 358 4179ft 124kts
26-Sep-23 16:20 33.974954 -117.786646 359 3325ft 112kts
26-Sep-23 16:21 34.005904 -117.785647 359 2667ft 100kts
26-Sep-23 16:22 34.034996 -117.786263 350 2482ft 112kts
26-Sep-23 16:23 34.068010 -117.785739 31 2077ft 118kts
26-Sep-23 16:24 34.075685 -117.749573 44 1958ft 103kts
26-Sep-23 16:25 34.090519 -117.765329 271 1312ft 75kts
26-Sep-23 16:26 34.091112 -117.778794 251 999ft 12kts
26-Sep-23 16:27 34.090411 -117.780180 270 997ft 8kts
26-Sep-23 16:28 34.089652 -117.781220 266 995ft 0kts

Navigation Log

Ident Type
Flight plan parsing failed, navigation log unavailable